sensor_id;sensor_type;location;lat;lon;timestamp;pressure;altitude;pressure_sealevel;temperature;humidity
35553;BME280;21656;46.054;13.614;2023-03-21T06:50:46;100838.47;;;7.81;100.00
35553;BME280;21656;46.054;13.614;2023-03-21T06:53:12;100833.00;;;7.97;100.00
35553;BME280;21656;46.054;13.614;2023-03-21T06:55:37;100832.50;;;8.05;100.00
35553;BME280;21656;46.054;13.614;2023-03-21T06:58:02;100841.81;;;8.14;100.00
35553;BME280;21656;46.054;13.614;2023-03-21T07:00:27;100823.19;;;8.39;100.00
35553;BME280;21656;46.054;13.614;2023-03-21T07:02:53;100824.88;;;8.55;100.00
35553;BME280;21656;46.054;13.614;2023-03-21T07:05:18;100832.88;;;8.69;100.00
35553;BME280;21656;46.054;13.614;2023-03-21T07:07:43;100818.88;;;8.91;100.00
35553;BME280;21656;46.054;13.614;2023-03-21T07:10:09;100819.56;;;9.07;100.00
35553;BME280;21656;46.054;13.614;2023-03-21T07:12:34;100822.38;;;9.19;100.00
35553;BME280;21656;46.054;13.614;2023-03-21T07:15:03;100815.94;;;9.21;100.00
35553;BME280;21656;46.054;13.614;2023-03-21T07:17:29;100817.13;;;9.30;100.00
35553;BME280;21656;46.054;13.614;2023-03-21T07:19:54;100817.00;;;9.31;100.00
35553;BME280;21656;46.054;13.614;2023-03-21T07:22:20;100819.28;;;9.50;100.00
35553;BME280;21656;46.054;13.614;2023-03-21T07:24:45;100816.59;;;9.50;100.00
35553;BME280;21656;46.054;13.614;2023-03-21T07:27:12;100818.97;;;9.55;100.00
35553;BME280;21656;46.054;13.614;2023-03-21T07:29:37;100818.75;;;9.58;100.00
35553;BME280;21656;46.054;13.614;2023-03-21T07:32:03;100820.06;;;9.65;100.00
35553;BME280;21656;46.054;13.614;2023-03-21T07:34:28;100813.13;;;9.87;100.00
35553;BME280;21656;46.054;13.614;2023-03-21T07:36:57;100818.31;;;10.03;100.00
35553;BME280;21656;46.054;13.614;2023-03-21T07:39:22;100817.75;;;10.10;100.00
35553;BME280;21656;46.054;13.614;2023-03-21T07:41:47;100809.13;;;10.18;100.00
35553;BME280;21656;46.054;13.614;2023-03-21T07:44:13;100811.34;;;10.24;100.00
35553;BME280;21656;46.054;13.614;2023-03-21T07:46:38;100820.41;;;10.36;100.00
35553;BME280;21656;46.054;13.614;2023-03-21T07:49:03;100816.97;;;10.58;100.00
35553;BME280;21656;46.054;13.614;2023-03-21T07:51:30;100807.22;;;10.68;100.00
35553;BME280;21656;46.054;13.614;2023-03-21T07:53:55;100810.72;;;10.81;100.00
35553;BME280;21656;46.054;13.614;2023-03-21T07:56:20;100806.75;;;10.98;100.00
35553;BME280;21656;46.054;13.614;2023-03-21T07:58:45;100808.75;;;11.07;100.00
35553;BME280;21656;46.054;13.614;2023-03-21T08:01:11;100793.66;;;11.05;100.00
35553;BME280;21656;46.054;13.614;2023-03-21T08:03:36;100808.25;;;11.14;100.00
35553;BME280;21656;46.054;13.614;2023-03-21T08:06:01;100801.31;;;11.22;100.00
35553;BME280;21656;46.054;13.614;2023-03-21T08:08:28;100799.13;;;11.39;100.00
35553;BME280;21656;46.054;13.614;2023-03-21T08:10:53;100797.47;;;11.60;100.00
35553;BME280;21656;46.054;13.614;2023-03-21T08:13:19;100798.44;;;11.70;100.00
35553;BME280;21656;46.054;13.614;2023-03-21T08:15:44;100794.88;;;11.81;100.00
35553;BME280;21656;46.054;13.614;2023-03-21T08:18:10;100804.22;;;12.00;100.00
35553;BME280;21656;46.054;13.614;2023-03-21T08:20:35;100795.00;;;12.25;100.00
35553;BME280;21656;46.054;13.614;2023-03-21T08:23:01;100795.47;;;12.41;100.00
35553;BME280;21656;46.054;13.614;2023-03-21T08:25:26;100788.03;;;12.66;99.89
35553;BME280;21656;46.054;13.614;2023-03-21T08:27:51;100786.50;;;12.84;97.22
35553;BME280;21656;46.054;13.614;2023-03-21T08:30:18;100780.91;;;12.97;95.65
35553;BME280;21656;46.054;13.614;2023-03-21T08:32:44;100777.00;;;13.11;91.98
35553;BME280;21656;46.054;13.614;2023-03-21T08:35:11;100782.63;;;13.19;90.01
35553;BME280;21656;46.054;13.614;2023-03-21T08:37:37;100780.00;;;13.29;87.50
35553;BME280;21656;46.054;13.614;2023-03-21T08:40:03;100780.75;;;13.31;85.99
35553;BME280;21656;46.054;13.614;2023-03-21T08:42:31;100772.16;;;13.47;87.35
35553;BME280;21656;46.054;13.614;2023-03-21T08:44:57;100773.22;;;13.55;82.23
35553;BME280;21656;46.054;13.614;2023-03-21T08:47:22;100764.41;;;13.63;85.12
35553;BME280;21656;46.054;13.614;2023-03-21T08:49:47;100760.81;;;13.83;83.57
35553;BME280;21656;46.054;13.614;2023-03-21T08:52:12;100750.91;;;14.03;80.73
35553;BME280;21656;46.054;13.614;2023-03-21T08:54:38;100757.09;;;14.35;81.92
35553;BME280;21656;46.054;13.614;2023-03-21T08:57:04;100748.69;;;14.38;77.67
35553;BME280;21656;46.054;13.614;2023-03-21T08:59:30;100748.63;;;14.59;76.19
35553;BME280;21656;46.054;13.614;2023-03-21T09:01:55;100750.16;;;14.71;74.90
35553;BME280;21656;46.054;13.614;2023-03-21T09:04:20;100744.75;;;14.81;74.63
35553;BME280;21656;46.054;13.614;2023-03-21T09:06:46;100732.19;;;14.99;73.14
35553;BME280;21656;46.054;13.614;2023-03-21T09:09:13;100734.72;;;15.20;73.50
35553;BME280;21656;46.054;13.614;2023-03-21T09:11:39;100734.34;;;15.52;71.85
35553;BME280;21656;46.054;13.614;2023-03-21T09:14:05;100729.91;;;15.51;69.14
35553;BME280;21656;46.054;13.614;2023-03-21T09:16:30;100729.88;;;15.71;67.83
35553;BME280;21656;46.054;13.614;2023-03-21T09:18:56;100722.69;;;15.79;67.94
35553;BME280;21656;46.054;13.614;2023-03-21T09:21:23;100725.78;;;15.85;65.33
35553;BME280;21656;46.054;13.614;2023-03-21T09:23:49;100721.88;;;15.97;64.14
35553;BME280;21656;46.054;13.614;2023-03-21T09:26:20;100726.59;;;16.22;64.10
35553;BME280;21656;46.054;13.614;2023-03-21T09:28:45;100722.91;;;16.41;63.51
35553;BME280;21656;46.054;13.614;2023-03-21T09:31:12;100719.47;;;16.39;59.55
35553;BME280;21656;46.054;13.614;2023-03-21T09:33:40;100717.69;;;16.48;60.73
35553;BME280;21656;46.054;13.614;2023-03-21T09:36:06;100716.22;;;16.72;62.49
35553;BME280;21656;46.054;13.614;2023-03-21T09:38:38;100705.19;;;16.91;60.56
35553;BME280;21656;46.054;13.614;2023-03-21T09:46:28;100699.97;;;17.24;58.95
35553;BME280;21656;46.054;13.614;2023-03-21T09:48:58;100697.84;;;17.36;58.99
35553;BME280;21656;46.054;13.614;2023-03-21T09:51:32;100695.50;;;17.41;56.68
35553;BME280;21656;46.054;13.614;2023-03-21T09:54:00;100696.56;;;17.48;56.91
35553;BME280;21656;46.054;13.614;2023-03-21T09:56:27;100687.28;;;17.67;57.63
35553;BME280;21656;46.054;13.614;2023-03-21T09:58:54;100691.31;;;17.81;56.79
35553;BME280;21656;46.054;13.614;2023-03-21T10:01:24;100687.63;;;17.98;54.95
35553;BME280;21656;46.054;13.614;2023-03-21T10:03:58;100677.38;;;18.00;54.01
35553;BME280;21656;46.054;13.614;2023-03-21T10:06:25;100670.72;;;17.86;54.26
35553;BME280;21656;46.054;13.614;2023-03-21T10:09:15;100680.16;;;17.74;54.10
35553;BME280;21656;46.054;13.614;2023-03-21T10:11:43;100665.28;;;17.94;53.95
35553;BME280;21656;46.054;13.614;2023-03-21T10:16:41;100664.38;;;18.69;52.17
35553;BME280;21656;46.054;13.614;2023-03-21T10:19:09;100660.47;;;19.04;53.01
35553;BME280;21656;46.054;13.614;2023-03-21T10:21:37;100667.34;;;19.48;49.84
35553;BME280;21656;46.054;13.614;2023-03-21T10:24:03;100658.91;;;19.74;47.69
35553;BME280;21656;46.054;13.614;2023-03-21T10:26:29;100655.13;;;19.83;47.80
35553;BME280;21656;46.054;13.614;2023-03-21T10:28:56;100659.28;;;20.02;46.53
35553;BME280;21656;46.054;13.614;2023-03-21T10:31:23;100642.19;;;20.31;47.03
35553;BME280;21656;46.054;13.614;2023-03-21T10:33:50;100639.56;;;20.38;44.48
35553;BME280;21656;46.054;13.614;2023-03-21T10:36:26;100634.47;;;20.58;45.44
35553;BME280;21656;46.054;13.614;2023-03-21T10:41:19;100629.72;;;20.75;42.07
35553;BME280;21656;46.054;13.614;2023-03-21T10:43:45;100625.59;;;20.94;43.91
35553;BME280;21656;46.054;13.614;2023-03-21T10:46:19;100624.78;;;21.38;42.82
35553;BME280;21656;46.054;13.614;2023-03-21T10:48:51;100618.44;;;21.08;40.33
35553;BME280;21656;46.054;13.614;2023-03-21T10:51:20;100618.78;;;21.42;41.13
35553;BME280;21656;46.054;13.614;2023-03-21T10:53:51;100616.38;;;21.69;37.46
35553;BME280;21656;46.054;13.614;2023-03-21T10:56:17;100619.53;;;21.88;35.86
35553;BME280;21656;46.054;13.614;2023-03-21T10:58:46;100610.91;;;22.05;35.91
35553;BME280;21656;46.054;13.614;2023-03-21T11:01:16;100607.63;;;21.95;36.40
35553;BME280;21656;46.054;13.614;2023-03-21T11:03:53;100606.66;;;22.03;35.33
35553;BME280;21656;46.054;13.614;2023-03-21T11:08:55;100603.56;;;21.91;36.18
35553;BME280;21656;46.054;13.614;2023-03-21T11:11:26;100605.53;;;21.61;36.29
35553;BME280;21656;46.054;13.614;2023-03-21T11:13:56;100599.38;;;21.59;38.09
35553;BME280;21656;46.054;13.614;2023-03-21T11:18:48;100597.50;;;22.32;35.43
35553;BME280;21656;46.054;13.614;2023-03-21T11:21:14;100587.47;;;22.67;34.69
35553;BME280;21656;46.054;13.614;2023-03-21T11:23:41;100588.63;;;22.58;35.03
35553;BME280;21656;46.054;13.614;2023-03-21T11:26:15;100584.50;;;22.41;36.88
35553;BME280;21656;46.054;13.614;2023-03-21T11:28:44;100580.22;;;22.17;38.02
35553;BME280;21656;46.054;13.614;2023-03-21T11:31:10;100573.97;;;22.23;37.68
35553;BME280;21656;46.054;13.614;2023-03-21T11:33:41;100577.13;;;22.41;35.31
35553;BME280;21656;46.054;13.614;2023-03-21T11:38:43;100561.47;;;23.26;35.05
35553;BME280;21656;46.054;13.614;2023-03-21T11:41:11;100565.47;;;23.17;34.81
35553;BME280;21656;46.054;13.614;2023-03-21T11:43:50;100559.00;;;23.86;34.97
35553;BME280;21656;46.054;13.614;2023-03-21T11:46:15;100553.69;;;23.85;35.55
35553;BME280;21656;46.054;13.614;2023-03-21T11:48:42;100561.06;;;22.94;34.34
35553;BME280;21656;46.054;13.614;2023-03-21T11:56:41;100548.69;;;24.35;33.57
35553;BME280;21656;46.054;13.614;2023-03-21T12:01:46;100539.38;;;24.76;34.05
35553;BME280;21656;46.054;13.614;2023-03-21T12:10:04;100533.00;;;22.43;37.47
35553;BME280;21656;46.054;13.614;2023-03-21T12:12:47;100534.66;;;22.37;37.28
35553;BME280;21656;46.054;13.614;2023-03-21T12:20:24;100529.91;;;22.46;37.98
35553;BME280;21656;46.054;13.614;2023-03-21T12:33:34;100514.72;;;25.14;35.30
35553;BME280;21656;46.054;13.614;2023-03-21T12:38:42;100508.72;;;24.52;34.11
35553;BME280;21656;46.054;13.614;2023-03-21T12:41:15;100503.84;;;24.34;35.06
35553;BME280;21656;46.054;13.614;2023-03-21T12:48:59;100498.25;;;23.74;35.38
35553;BME280;21656;46.054;13.614;2023-03-21T12:51:32;100489.84;;;23.89;36.26
35553;BME280;21656;46.054;13.614;2023-03-21T12:54:12;100492.63;;;24.49;35.21
35553;BME280;21656;46.054;13.614;2023-03-21T12:56:50;100485.84;;;23.98;34.98
35553;BME280;21656;46.054;13.614;2023-03-21T13:01:43;100488.38;;;23.32;36.89
35553;BME280;21656;46.054;13.614;2023-03-21T13:06:44;100478.41;;;22.83;38.02
35553;BME280;21656;46.054;13.614;2023-03-21T13:09:30;100480.19;;;22.62;38.45
35553;BME280;21656;46.054;13.614;2023-03-21T13:11:57;100473.88;;;22.68;37.13
35553;BME280;21656;46.054;13.614;2023-03-21T13:14:27;100476.03;;;22.73;36.33
35553;BME280;21656;46.054;13.614;2023-03-21T13:16:55;100468.63;;;23.02;36.97
35553;BME280;21656;46.054;13.614;2023-03-21T13:19:28;100463.72;;;23.45;36.56
35553;BME280;21656;46.054;13.614;2023-03-21T13:21:57;100467.31;;;23.46;35.61
35553;BME280;21656;46.054;13.614;2023-03-21T13:24:31;100467.97;;;23.61;35.74
35553;BME280;21656;46.054;13.614;2023-03-21T13:31:58;100464.88;;;23.16;35.92
35553;BME280;21656;46.054;13.614;2023-03-21T13:34:29;100455.78;;;22.81;36.38
35553;BME280;21656;46.054;13.614;2023-03-21T13:36:55;100459.06;;;22.56;37.04
35553;BME280;21656;46.054;13.614;2023-03-21T13:39:24;100456.53;;;22.33;37.03
35553;BME280;21656;46.054;13.614;2023-03-21T13:41:50;100453.75;;;22.55;36.84
35553;BME280;21656;46.054;13.614;2023-03-21T13:47:01;100441.66;;;21.71;38.75
35553;BME280;21656;46.054;13.614;2023-03-21T13:49:34;100445.91;;;21.37;38.91
35553;BME280;21656;46.054;13.614;2023-03-21T13:52:01;100445.16;;;20.92;38.57
35553;BME280;21656;46.054;13.614;2023-03-21T13:59:55;100432.94;;;20.35;40.30
35553;BME280;21656;46.054;13.614;2023-03-21T14:02:38;100434.19;;;20.18;41.46
35553;BME280;21656;46.054;13.614;2023-03-21T14:05:19;100426.31;;;20.15;41.33
35553;BME280;21656;46.054;13.614;2023-03-21T14:07:46;100420.84;;;20.15;41.17
35553;BME280;21656;46.054;13.614;2023-03-21T14:10:27;100423.81;;;20.13;40.90
35553;BME280;21656;46.054;13.614;2023-03-21T14:12:54;100420.66;;;20.02;41.36
35553;BME280;21656;46.054;13.614;2023-03-21T14:16:21;100410.41;;;20.19;40.66
35553;BME280;21656;46.054;13.614;2023-03-21T14:18:18;100406.38;;;20.29;40.77
35553;BME280;21656;46.054;13.614;2023-03-21T14:20:43;100402.88;;;20.35;39.50
35553;BME280;21656;46.054;13.614;2023-03-21T14:23:15;100403.94;;;20.34;41.25
35553;BME280;21656;46.054;13.614;2023-03-21T14:25:41;100403.81;;;20.28;40.92
35553;BME280;21656;46.054;13.614;2023-03-21T14:28:12;100411.28;;;20.34;40.18
35553;BME280;21656;46.054;13.614;2023-03-21T14:30:38;100399.94;;;20.22;39.79
35553;BME280;21656;46.054;13.614;2023-03-21T14:33:13;100400.72;;;20.31;39.66
35553;BME280;21656;46.054;13.614;2023-03-21T14:35:40;100385.84;;;20.33;40.65
35553;BME280;21656;46.054;13.614;2023-03-21T14:38:07;100391.66;;;20.30;40.15
35553;BME280;21656;46.054;13.614;2023-03-21T14:40:33;100398.34;;;20.28;40.48
35553;BME280;21656;46.054;13.614;2023-03-21T14:43:02;100389.50;;;20.26;41.12
35553;BME280;21656;46.054;13.614;2023-03-21T14:45:28;100394.88;;;20.19;41.34
35553;BME280;21656;46.054;13.614;2023-03-21T14:50:51;100374.38;;;20.00;41.42
35553;BME280;21656;46.054;13.614;2023-03-21T14:56:32;100376.94;;;20.02;41.92
35553;BME280;21656;46.054;13.614;2023-03-21T14:58:32;100381.47;;;20.09;42.08
35553;BME280;21656;46.054;13.614;2023-03-21T15:01:02;100366.50;;;20.05;42.12
35553;BME280;21656;46.054;13.614;2023-03-21T15:03:28;100371.75;;;20.07;42.00
35553;BME280;21656;46.054;13.614;2023-03-21T15:05:54;100370.25;;;20.04;41.28
35553;BME280;21656;46.054;13.614;2023-03-21T15:08:21;100370.34;;;19.96;40.96
35553;BME280;21656;46.054;13.614;2023-03-21T15:11:00;100364.56;;;19.91;40.70
35553;BME280;21656;46.054;13.614;2023-03-21T15:13:27;100370.97;;;19.83;41.43
35553;BME280;21656;46.054;13.614;2023-03-21T15:15:53;100359.38;;;19.81;42.25
35553;BME280;21656;46.054;13.614;2023-03-21T15:18:32;100366.22;;;19.77;42.89
35553;BME280;21656;46.054;13.614;2023-03-21T15:21:00;100366.13;;;19.70;41.66
35553;BME280;21656;46.054;13.614;2023-03-21T15:23:31;100362.94;;;19.59;40.70
35553;BME280;21656;46.054;13.614;2023-03-21T15:26:00;100361.28;;;19.58;42.04
35553;BME280;21656;46.054;13.614;2023-03-21T15:28:25;100356.34;;;19.53;42.52
35553;BME280;21656;46.054;13.614;2023-03-21T15:30:51;100359.41;;;19.35;42.25
35553;BME280;21656;46.054;13.614;2023-03-21T15:33:17;100362.28;;;19.34;42.26
35553;BME280;21656;46.054;13.614;2023-03-21T15:35:44;100354.31;;;19.32;42.28
35553;BME280;21656;46.054;13.614;2023-03-21T15:38:27;100354.47;;;19.31;42.65
35553;BME280;21656;46.054;13.614;2023-03-21T15:41:11;100357.28;;;19.22;43.71
35553;BME280;21656;46.054;13.614;2023-03-21T15:43:37;100355.75;;;19.20;42.83
35553;BME280;21656;46.054;13.614;2023-03-21T15:46:02;100352.50;;;19.24;42.23
35553;BME280;21656;46.054;13.614;2023-03-21T15:48:37;100349.63;;;19.18;43.04
35553;BME280;21656;46.054;13.614;2023-03-21T15:51:03;100342.88;;;19.05;43.63
35553;BME280;21656;46.054;13.614;2023-03-21T15:53:30;100344.47;;;19.00;43.87
35553;BME280;21656;46.054;13.614;2023-03-21T15:55:56;100334.06;;;18.95;44.36
35553;BME280;21656;46.054;13.614;2023-03-21T15:58:26;100342.75;;;18.99;43.43
35553;BME280;21656;46.054;13.614;2023-03-21T16:00:59;100339.91;;;18.92;44.03
35553;BME280;21656;46.054;13.614;2023-03-21T16:08:33;100344.50;;;18.92;43.73
35553;BME280;21656;46.054;13.614;2023-03-21T16:11:08;100345.09;;;18.79;44.24
35553;BME280;21656;46.054;13.614;2023-03-21T16:13:38;100347.81;;;18.71;44.67
35553;BME280;21656;46.054;13.614;2023-03-21T16:16:03;100352.25;;;18.72;44.30
35553;BME280;21656;46.054;13.614;2023-03-21T16:18:29;100347.53;;;18.57;45.51
35553;BME280;21656;46.054;13.614;2023-03-21T16:20:55;100353.72;;;18.51;45.40
35553;BME280;21656;46.054;13.614;2023-03-21T16:23:23;100364.31;;;18.38;46.26
35553;BME280;21656;46.054;13.614;2023-03-21T16:25:48;100356.84;;;18.32;45.72
35553;BME280;21656;46.054;13.614;2023-03-21T16:28:20;100367.59;;;18.25;45.66
35553;BME280;21656;46.054;13.614;2023-03-21T16:30:45;100371.53;;;18.14;46.03
35553;BME280;21656;46.054;13.614;2023-03-21T16:33:11;100379.56;;;18.00;47.89
35553;BME280;21656;46.054;13.614;2023-03-21T16:35:36;100373.66;;;17.88;49.25
35553;BME280;21656;46.054;13.614;2023-03-21T16:38:01;100390.16;;;17.86;48.14
35553;BME280;21656;46.054;13.614;2023-03-21T16:40:30;100387.94;;;17.90;46.79
35553;BME280;21656;46.054;13.614;2023-03-21T16:42:56;100386.75;;;17.84;46.73
35553;BME280;21656;46.054;13.614;2023-03-21T16:45:22;100400.84;;;17.71;48.01
35553;BME280;21656;46.054;13.614;2023-03-21T16:47:47;100393.19;;;17.67;47.53
35553;BME280;21656;46.054;13.614;2023-03-21T16:52:44;100402.38;;;17.33;51.36
35553;BME280;21656;46.054;13.614;2023-03-21T16:55:09;100410.00;;;17.21;50.98
35553;BME280;21656;46.054;13.614;2023-03-21T16:57:34;100407.75;;;17.00;52.01
35553;BME280;21656;46.054;13.614;2023-03-21T17:00:00;100410.06;;;16.79;53.37
35553;BME280;21656;46.054;13.614;2023-03-21T17:02:25;100409.47;;;16.67;54.42
35553;BME280;21656;46.054;13.614;2023-03-21T17:04:51;100414.91;;;16.67;53.17
35553;BME280;21656;46.054;13.614;2023-03-21T17:07:16;100417.63;;;16.67;54.55
35553;BME280;21656;46.054;13.614;2023-03-21T17:09:42;100428.75;;;16.56;55.17
35553;BME280;21656;46.054;13.614;2023-03-21T17:12:11;100424.09;;;16.40;55.64
35553;BME280;21656;46.054;13.614;2023-03-21T17:14:38;100427.91;;;16.21;58.01
35553;BME280;21656;46.054;13.614;2023-03-21T17:17:03;100428.84;;;16.12;59.97
35553;BME280;21656;46.054;13.614;2023-03-21T17:19:28;100432.47;;;15.94;62.02
35553;BME280;21656;46.054;13.614;2023-03-21T17:21:54;100431.25;;;15.71;65.10
35553;BME280;21656;46.054;13.614;2023-03-21T17:24:20;100439.22;;;15.54;64.77
35553;BME280;21656;46.054;13.614;2023-03-21T17:26:45;100444.94;;;15.51;66.38
35553;BME280;21656;46.054;13.614;2023-03-21T17:29:13;100447.75;;;15.42;67.28
35553;BME280;21656;46.054;13.614;2023-03-21T17:31:39;100447.63;;;15.15;69.23
35553;BME280;21656;46.054;13.614;2023-03-21T17:34:04;100451.06;;;14.90;71.36
35553;BME280;21656;46.054;13.614;2023-03-21T17:36:31;100461.22;;;14.88;72.41
35553;BME280;21656;46.054;13.614;2023-03-21T17:38:56;100456.06;;;14.94;72.69
35553;BME280;21656;46.054;13.614;2023-03-21T17:41:22;100449.72;;;14.76;75.51
35553;BME280;21656;46.054;13.614;2023-03-21T17:43:48;100462.00;;;14.70;76.89
35553;BME280;21656;46.054;13.614;2023-03-21T17:46:16;100459.50;;;14.59;77.42
35553;BME280;21656;46.054;13.614;2023-03-21T17:48:42;100458.38;;;14.42;78.04
35553;BME280;21656;46.054;13.614;2023-03-21T17:51:08;100455.41;;;14.36;79.02
35553;BME280;21656;46.054;13.614;2023-03-21T17:53:38;100463.41;;;14.18;80.79
35553;BME280;21656;46.054;13.614;2023-03-21T17:56:04;100459.88;;;14.17;80.44
35553;BME280;21656;46.054;13.614;2023-03-21T17:58:30;100459.88;;;14.17;82.49
35553;BME280;21656;46.054;13.614;2023-03-21T18:00:56;100462.03;;;14.14;82.80
35553;BME280;21656;46.054;13.614;2023-03-21T18:03:21;100468.16;;;14.06;82.81
35553;BME280;21656;46.054;13.614;2023-03-21T18:05:46;100464.19;;;14.00;82.58
35553;BME280;21656;46.054;13.614;2023-03-21T18:08:11;100464.19;;;13.81;86.22
35553;BME280;21656;46.054;13.614;2023-03-21T18:10:37;100467.34;;;13.76;88.58
35553;BME280;21656;46.054;13.614;2023-03-21T18:13:03;100475.44;;;13.66;90.33
35553;BME280;21656;46.054;13.614;2023-03-21T18:15:28;100478.16;;;13.57;92.39
35553;BME280;21656;46.054;13.614;2023-03-21T18:17:53;100473.44;;;13.49;92.04
35553;BME280;21656;46.054;13.614;2023-03-21T18:20:20;100474.75;;;13.45;91.75
35553;BME280;21656;46.054;13.614;2023-03-21T18:22:46;100483.28;;;13.40;93.55
35553;BME280;21656;46.054;13.614;2023-03-21T18:25:11;100474.00;;;13.33;95.70
35553;BME280;21656;46.054;13.614;2023-03-21T18:27:37;100474.28;;;13.30;96.13
35553;BME280;21656;46.054;13.614;2023-03-21T18:30:03;100477.66;;;13.22;96.29
35553;BME280;21656;46.054;13.614;2023-03-21T18:32:29;100480.38;;;13.22;96.80
35553;BME280;21656;46.054;13.614;2023-03-21T18:34:54;100483.59;;;13.16;97.88
35553;BME280;21656;46.054;13.614;2023-03-21T18:37:20;100489.16;;;13.15;98.62
35553;BME280;21656;46.054;13.614;2023-03-21T18:39:46;100488.00;;;13.08;99.94
35553;BME280;21656;46.054;13.614;2023-03-21T18:42:12;100484.13;;;13.00;100.00
35553;BME280;21656;46.054;13.614;2023-03-21T18:44:38;100481.56;;;12.89;100.00
35553;BME280;21656;46.054;13.614;2023-03-21T18:47:06;100495.09;;;12.68;100.00
35553;BME280;21656;46.054;13.614;2023-03-21T18:49:32;100500.97;;;12.73;100.00
35553;BME280;21656;46.054;13.614;2023-03-21T18:51:58;100490.31;;;12.72;100.00
35553;BME280;21656;46.054;13.614;2023-03-21T18:54:23;100495.44;;;12.75;100.00
35553;BME280;21656;46.054;13.614;2023-03-21T18:56:48;100497.25;;;12.65;100.00
35553;BME280;21656;46.054;13.614;2023-03-21T18:59:17;100496.50;;;12.63;100.00
35553;BME280;21656;46.054;13.614;2023-03-21T19:01:45;100501.69;;;12.45;100.00
35553;BME280;21656;46.054;13.614;2023-03-21T19:04:11;100499.97;;;12.44;100.00
35553;BME280;21656;46.054;13.614;2023-03-21T19:06:37;100506.28;;;12.33;100.00
35553;BME280;21656;46.054;13.614;2023-03-21T19:09:02;100511.25;;;12.28;100.00
35553;BME280;21656;46.054;13.614;2023-03-21T19:11:27;100513.44;;;12.13;100.00
35553;BME280;21656;46.054;13.614;2023-03-21T19:13:53;100512.97;;;12.08;100.00
35553;BME280;21656;46.054;13.614;2023-03-21T19:16:18;100509.81;;;12.03;100.00
35553;BME280;21656;46.054;13.614;2023-03-21T19:18:44;100515.59;;;11.98;100.00
35553;BME280;21656;46.054;13.614;2023-03-21T19:21:09;100512.16;;;11.96;100.00
35553;BME280;21656;46.054;13.614;2023-03-21T19:23:35;100519.25;;;11.97;100.00
35553;BME280;21656;46.054;13.614;2023-03-21T19:26:00;100515.97;;;11.93;100.00
35553;BME280;21656;46.054;13.614;2023-03-21T19:28:26;100518.56;;;11.84;100.00
35553;BME280;21656;46.054;13.614;2023-03-21T19:30:52;100518.22;;;11.77;100.00
35553;BME280;21656;46.054;13.614;2023-03-21T19:33:19;100529.28;;;11.74;100.00
35553;BME280;21656;46.054;13.614;2023-03-21T19:35:45;100534.63;;;11.53;100.00
35553;BME280;21656;46.054;13.614;2023-03-21T19:38:11;100533.03;;;11.50;100.00
35553;BME280;21656;46.054;13.614;2023-03-21T19:40:39;100538.44;;;11.50;100.00
35553;BME280;21656;46.054;13.614;2023-03-21T19:43:05;100533.28;;;11.47;100.00
35553;BME280;21656;46.054;13.614;2023-03-21T19:45:31;100538.06;;;11.44;100.00
35553;BME280;21656;46.054;13.614;2023-03-21T19:47:56;100536.78;;;11.27;100.00
35553;BME280;21656;46.054;13.614;2023-03-21T19:50:21;100549.25;;;11.28;100.00
35553;BME280;21656;46.054;13.614;2023-03-21T19:52:52;100542.88;;;11.29;100.00
35553;BME280;21656;46.054;13.614;2023-03-21T19:55:18;100540.19;;;11.29;100.00
35553;BME280;21656;46.054;13.614;2023-03-21T19:57:43;100539.09;;;11.20;100.00
35553;BME280;21656;46.054;13.614;2023-03-21T20:00:11;100541.91;;;11.19;100.00
35553;BME280;21656;46.054;13.614;2023-03-21T20:02:37;100553.94;;;11.15;100.00
35553;BME280;21656;46.054;13.614;2023-03-21T20:05:04;100550.50;;;11.13;100.00
35553;BME280;21656;46.054;13.614;2023-03-21T20:07:30;100556.25;;;11.08;100.00
35553;BME280;21656;46.054;13.614;2023-03-21T20:09:56;100569.47;;;10.89;100.00
35553;BME280;21656;46.054;13.614;2023-03-21T20:12:22;100566.78;;;10.77;100.00
35553;BME280;21656;46.054;13.614;2023-03-21T20:14:47;100569.13;;;10.82;100.00
35553;BME280;21656;46.054;13.614;2023-03-21T20:17:12;100566.28;;;10.83;100.00
35553;BME280;21656;46.054;13.614;2023-03-21T20:19:38;100568.63;;;10.77;100.00
35553;BME280;21656;46.054;13.614;2023-03-21T20:22:04;100568.38;;;10.91;100.00
35553;BME280;21656;46.054;13.614;2023-03-21T20:24:31;100563.97;;;10.90;100.00
35553;BME280;21656;46.054;13.614;2023-03-21T20:26:57;100566.44;;;10.82;100.00
35553;BME280;21656;46.054;13.614;2023-03-21T20:29:23;100567.53;;;10.79;100.00
35553;BME280;21656;46.054;13.614;2023-03-21T20:31:48;100570.69;;;10.73;100.00
35553;BME280;21656;46.054;13.614;2023-03-21T20:34:13;100574.03;;;10.77;100.00
35553;BME280;21656;46.054;13.614;2023-03-21T20:36:39;100575.38;;;10.82;100.00
35553;BME280;21656;46.054;13.614;2023-03-21T20:39:06;100577.47;;;10.79;100.00
35553;BME280;21656;46.054;13.614;2023-03-21T20:41:31;100572.28;;;10.76;100.00
35553;BME280;21656;46.054;13.614;2023-03-21T20:43:56;100574.13;;;10.75;100.00
35553;BME280;21656;46.054;13.614;2023-03-21T20:46:24;100580.00;;;10.69;100.00
35553;BME280;21656;46.054;13.614;2023-03-21T20:48:50;100580.38;;;10.65;100.00
35553;BME280;21656;46.054;13.614;2023-03-21T20:51:15;100587.91;;;10.37;100.00
35553;BME280;21656;46.054;13.614;2023-03-21T20:53:41;100579.47;;;10.17;100.00
35553;BME280;21656;46.054;13.614;2023-03-21T20:56:07;100583.16;;;10.16;100.00